createdAt,value
2022-10-25T00:00:25.925Z,999.95
2022-10-25T00:01:25.935Z,999.97
2022-10-25T00:02:25.900Z,999.96
2022-10-25T00:03:25.890Z,999.95
2022-10-25T00:04:25.886Z,999.97
2022-10-25T00:05:25.868Z,999.9
2022-10-25T00:06:25.862Z,999.96
2022-10-25T00:07:25.874Z,999.99
2022-10-25T00:08:25.838Z,999.97
2022-10-25T00:09:25.824Z,1000.07
2022-10-25T00:10:25.822Z,1000.03
2022-10-25T00:11:25.808Z,1000.08
2022-10-25T00:12:25.797Z,1000.03
2022-10-25T00:13:25.818Z,1000.04
2022-10-25T00:14:25.789Z,1000.03
2022-10-25T00:15:25.771Z,1000.04
2022-10-25T00:16:25.753Z,999.97
2022-10-25T00:17:25.749Z,1000.01
2022-10-25T00:18:25.741Z,1000
2022-10-25T00:19:25.735Z,1000
2022-10-25T00:20:25.713Z,1000.06
2022-10-25T00:21:25.704Z,1000.05
2022-10-25T00:22:25.691Z,1000.02
2022-10-25T00:23:25.687Z,1000.05
2022-10-25T00:24:25.675Z,1000.01
2022-10-25T00:25:25.678Z,1000.03
2022-10-25T00:26:25.653Z,1000.09
2022-10-25T00:27:25.639Z,1000.06
2022-10-25T00:28:25.639Z,1000.02
2022-10-25T00:29:25.619Z,1000.02
2022-10-25T00:30:25.606Z,1000.03
2022-10-25T00:31:25.614Z,1000.07
2022-10-25T00:32:25.592Z,1000.1
2022-10-25T00:33:25.579Z,1000.15
2022-10-25T00:34:25.566Z,1000.18
2022-10-25T00:35:25.559Z,1000.19
2022-10-25T00:36:25.549Z,1000.15
2022-10-25T00:37:25.548Z,1000.14
2022-10-25T00:38:25.524Z,1000.2
2022-10-25T00:39:25.521Z,1000.13
2022-10-25T00:40:25.508Z,1000.19
2022-10-25T00:41:25.492Z,1000.12
2022-10-25T00:42:25.483Z,1000.12
2022-10-25T00:43:25.472Z,1000.11
2022-10-25T00:44:25.481Z,1000.11
2022-10-25T00:45:25.457Z,1000.14
2022-10-25T00:46:25.443Z,1000.15
2022-10-25T00:47:25.431Z,1000.2
2022-10-25T00:48:25.426Z,1000.15
2022-10-25T00:49:25.409Z,1000.15
2022-10-25T00:50:25.419Z,1000.18
2022-10-25T00:51:25.391Z,1000.07
2022-10-25T00:52:25.383Z,1000.21
2022-10-25T00:53:25.369Z,1000.09
2022-10-25T00:54:25.362Z,1000.11
2022-10-25T00:55:25.350Z,1000.12
2022-10-25T00:56:25.348Z,1000.14
2022-10-25T00:57:25.337Z,1000.16
2022-10-25T00:58:25.322Z,1000.13
2022-10-25T00:59:25.311Z,1000.13
2022-10-25T01:00:25.301Z,1000.13
2022-10-25T01:01:25.286Z,1000.1
2022-10-25T01:02:25.286Z,1000.14
2022-10-25T01:03:25.273Z,1000.14
2022-10-25T01:04:25.259Z,1000.12
2022-10-25T01:05:25.249Z,1000.1
2022-10-25T01:06:25.239Z,1000.24
2022-10-25T01:07:25.270Z,1000.14
2022-10-25T01:08:25.225Z,1000.14
2022-10-25T01:09:25.206Z,1000.11
2022-10-25T01:10:25.197Z,1000.13
2022-10-25T01:11:25.184Z,1000.17
2022-10-25T01:12:25.177Z,1000.16
2022-10-25T01:13:25.173Z,1000.17
2022-10-25T01:14:25.237Z,1000.15
2022-10-25T01:15:25.152Z,1000.14
2022-10-25T01:16:25.190Z,1000.23
2022-10-25T01:17:25.123Z,1000.23
2022-10-25T01:18:25.120Z,1000.22
2022-10-25T01:19:25.101Z,1000.2
2022-10-25T01:20:25.107Z,1000.2
2022-10-25T01:21:25.078Z,1000.2
2022-10-25T01:22:25.073Z,1000.16
2022-10-25T01:23:25.060Z,1000.16
2022-10-25T01:24:25.048Z,1000.13
2022-10-25T01:25:25.050Z,1000.19
2022-10-25T01:26:25.084Z,1000.19
2022-10-25T01:27:25.018Z,1000.17
2022-10-25T01:28:25.039Z,1000.21
2022-10-25T01:29:25.030Z,1000.19
2022-10-25T01:30:25.024Z,1000.22
2022-10-25T01:31:25.003Z,1000.17
2022-10-25T01:32:24.968Z,1000.14
2022-10-25T01:33:24.964Z,1000.19
2022-10-25T01:34:24.960Z,1000.17
2022-10-25T01:35:24.930Z,1000.16
2022-10-25T01:36:24.923Z,1000.21
2022-10-25T01:37:24.918Z,1000.18
2022-10-25T01:38:24.901Z,1000.19
2022-10-25T01:39:24.896Z,1000.17
2022-10-25T01:40:24.889Z,1000.2
2022-10-25T01:41:24.866Z,1000.21
2022-10-25T01:42:24.862Z,1000.16
2022-10-25T01:43:24.851Z,1000.15
2022-10-25T01:44:24.844Z,1000.19
2022-10-25T01:45:24.838Z,1000.13
2022-10-25T01:46:24.884Z,1000.17
2022-10-25T01:47:24.814Z,1000.17
2022-10-25T01:48:24.799Z,1000.16
2022-10-25T01:49:24.789Z,1000.17
2022-10-25T01:50:24.779Z,1000.17
2022-10-25T01:51:24.770Z,1000.16
2022-10-25T01:52:24.759Z,1000.15
2022-10-25T01:53:24.759Z,1000.25
2022-10-25T01:54:24.735Z,1000.19
2022-10-25T01:55:24.723Z,1000.3
2022-10-25T01:56:24.711Z,1000.18
2022-10-25T01:57:24.704Z,1000.27
2022-10-25T01:58:24.693Z,1000.21
2022-10-25T01:59:24.697Z,1000.23
2022-10-25T02:00:24.676Z,1000.26
2022-10-25T02:01:24.660Z,1000.24
2022-10-25T02:02:24.655Z,1000.26
2022-10-25T02:03:24.641Z,1000.22
2022-10-25T02:04:24.644Z,1000.25
2022-10-25T02:05:24.637Z,1000.18
2022-10-25T02:06:24.632Z,1000.18
2022-10-25T02:07:24.604Z,1000.2
2022-10-25T02:08:24.591Z,1000.2
2022-10-25T02:09:24.586Z,1000.25
2022-10-25T02:10:24.565Z,1000.28
2022-10-25T02:11:24.570Z,1000.16
2022-10-25T02:12:24.551Z,1000.28
2022-10-25T02:13:24.538Z,1000.26
2022-10-25T02:14:24.525Z,1000.25
2022-10-25T02:15:24.524Z,1000.24
2022-10-25T02:16:24.509Z,1000.25
2022-10-25T02:17:24.509Z,1000.25
2022-10-25T02:18:24.495Z,1000.31
2022-10-25T02:19:24.474Z,1000.36
2022-10-25T02:20:24.468Z,1000.28
2022-10-25T02:21:24.459Z,1000.31
2022-10-25T02:22:24.445Z,1000.31
2022-10-25T02:23:24.444Z,1000.23
2022-10-25T02:24:24.427Z,1000.22
2022-10-25T02:25:24.416Z,1000.27
2022-10-25T02:26:24.402Z,1000.25
2022-10-25T02:27:24.398Z,1000.28
2022-10-25T02:28:24.387Z,1000.34
2022-10-25T02:29:24.382Z,1000.31
2022-10-25T02:30:24.359Z,1000.34
2022-10-25T02:31:24.349Z,1000.34
2022-10-25T02:32:24.345Z,1000.34
2022-10-25T02:33:24.333Z,1000.31
2022-10-25T02:34:24.317Z,1000.31
2022-10-25T02:35:24.320Z,1000.33
2022-10-25T02:36:24.304Z,1000.35
2022-10-25T02:37:24.291Z,1000.28
2022-10-25T02:38:24.277Z,1000.27
2022-10-25T02:39:24.268Z,1000.23
2022-10-25T02:40:24.260Z,1000.29
2022-10-25T02:41:24.251Z,1000.26
2022-10-25T02:42:24.240Z,1000.25
2022-10-25T02:43:24.229Z,1000.26
2022-10-25T02:44:24.220Z,1000.33
2022-10-25T02:45:24.208Z,1000.33
2022-10-25T02:46:24.197Z,1000.29
2022-10-25T02:47:24.201Z,1000.28
2022-10-25T02:48:24.173Z,1000.37
2022-10-25T02:49:24.174Z,1000.26
2022-10-25T02:50:24.198Z,1000.36
2022-10-25T02:51:24.160Z,1000.4
2022-10-25T02:52:24.199Z,1000.34
2022-10-25T02:53:24.125Z,1000.33
2022-10-25T02:54:24.121Z,1000.35
2022-10-25T02:55:24.101Z,1000.33
2022-10-25T02:56:24.087Z,1000.36
2022-10-25T02:57:24.088Z,1000.27
2022-10-25T02:58:24.070Z,1000.36
2022-10-25T02:59:24.061Z,1000.35
2022-10-25T03:00:24.055Z,1000.36
2022-10-25T03:01:24.042Z,1000.38
2022-10-25T03:02:24.033Z,1000.29
2022-10-25T03:03:24.021Z,1000.33
2022-10-25T03:04:24.011Z,1000.33
2022-10-25T03:05:23.996Z,1000.35
2022-10-25T03:06:23.994Z,1000.29
2022-10-25T03:07:23.982Z,1000.36
2022-10-25T03:08:23.971Z,1000.35
2022-10-25T03:09:23.961Z,1000.39
2022-10-25T03:10:23.945Z,1000.35
2022-10-25T03:11:23.943Z,1000.39
2022-10-25T03:12:23.934Z,1000.34
2022-10-25T03:13:23.919Z,1000.4
2022-10-25T03:14:23.910Z,1000.42
2022-10-25T03:15:23.900Z,1000.35
2022-10-25T03:16:23.905Z,1000.32
2022-10-25T03:17:23.876Z,1000.4
2022-10-25T03:18:23.871Z,1000.42
2022-10-25T03:19:23.851Z,1000.38
2022-10-25T03:20:23.847Z,1000.39
2022-10-25T03:21:23.839Z,1000.43
2022-10-25T03:22:23.825Z,1000.45
2022-10-25T03:23:23.819Z,1000.33
2022-10-25T03:24:23.812Z,1000.44
2022-10-25T03:25:23.796Z,1000.36
2022-10-25T03:26:23.784Z,1000.39
2022-10-25T03:27:23.769Z,1000.46
2022-10-25T03:28:23.759Z,1000.44
2022-10-25T03:29:23.755Z,1000.44
2022-10-25T03:30:23.744Z,1000.49
2022-10-25T03:31:23.730Z,1000.5
2022-10-25T03:32:23.723Z,1000.52
2022-10-25T03:33:23.708Z,1000.46
2022-10-25T03:34:23.699Z,1000.54
2022-10-25T03:35:23.693Z,1000.55
2022-10-25T03:36:23.684Z,1000.53
2022-10-25T03:37:23.680Z,1000.51
2022-10-25T03:38:23.655Z,1000.53
2022-10-25T03:39:23.651Z,1000.59
2022-10-25T03:40:23.637Z,1000.6
2022-10-25T03:41:23.624Z,1000.55
2022-10-25T03:42:23.617Z,1000.56
2022-10-25T03:44:24.611Z,1000.58
2022-10-25T03:45:23.588Z,1000.58
2022-10-25T03:46:23.593Z,1000.62
2022-10-25T03:47:23.565Z,1000.72
2022-10-25T03:48:23.576Z,1000.68
2022-10-25T03:49:23.546Z,1000.71
2022-10-25T03:50:23.543Z,1000.7
2022-10-25T03:51:23.524Z,1000.74
2022-10-25T03:52:23.513Z,1000.75
2022-10-25T03:53:23.504Z,1000.73
2022-10-25T03:54:23.495Z,1000.78
2022-10-25T03:55:23.489Z,1000.76
2022-10-25T03:56:23.476Z,1000.85
2022-10-25T03:57:23.463Z,1000.84
2022-10-25T03:58:23.455Z,1000.78
2022-10-25T03:59:23.456Z,1000.87
2022-10-25T04:00:23.436Z,1000.84
2022-10-25T04:01:23.427Z,1000.87
2022-10-25T04:02:23.413Z,1000.88
2022-10-25T04:03:23.405Z,1000.84
2022-10-25T04:04:23.411Z,1000.87
2022-10-25T04:05:23.387Z,1000.87
2022-10-25T04:06:23.400Z,1000.87
2022-10-25T04:07:23.368Z,1000.85
2022-10-25T04:08:23.349Z,1000.8
2022-10-25T04:09:23.338Z,1000.83
2022-10-25T04:10:23.330Z,1000.87
2022-10-25T04:11:23.322Z,1000.88
2022-10-25T04:12:23.314Z,1000.89
2022-10-25T04:13:23.300Z,1000.85
2022-10-25T04:14:23.289Z,1000.93
2022-10-25T04:15:23.277Z,1000.89
2022-10-25T04:16:23.264Z,1000.81
2022-10-25T04:17:23.257Z,1000.87
2022-10-25T04:18:23.249Z,1000.87
2022-10-25T04:19:23.231Z,1000.89
2022-10-25T04:20:23.220Z,1000.92
2022-10-25T04:21:23.217Z,1000.91
2022-10-25T04:22:23.202Z,1000.94
2022-10-25T04:23:23.189Z,1000.92
2022-10-25T04:24:23.182Z,1001.01
2022-10-25T04:25:23.174Z,1000.98
2022-10-25T04:26:23.160Z,1000.9
2022-10-25T04:27:23.149Z,1000.89
2022-10-25T04:28:23.137Z,1000.92
2022-10-25T04:29:23.125Z,1000.92
2022-10-25T04:30:23.125Z,1000.92
2022-10-25T04:31:23.109Z,1000.91
2022-10-25T04:32:23.097Z,1000.96
2022-10-25T04:33:23.086Z,1000.96
2022-10-25T04:34:23.079Z,1000.98
2022-10-25T04:35:23.066Z,1000.92
2022-10-25T04:36:23.058Z,1000.96
2022-10-25T04:37:23.050Z,1000.97
2022-10-25T04:38:23.042Z,1000.88
2022-10-25T04:39:23.026Z,1000.98
2022-10-25T04:40:23.013Z,1000.96
2022-10-25T04:41:23.007Z,1000.98
2022-10-25T04:42:22.999Z,1000.98
2022-10-25T04:43:22.990Z,1000.98
2022-10-25T04:44:22.971Z,1000.98
2022-10-25T04:45:22.967Z,1001.03
2022-10-25T04:46:22.952Z,1001.01
2022-10-25T04:47:22.941Z,1001.01
2022-10-25T04:48:22.942Z,1001.06
2022-10-25T04:49:22.918Z,1001.03
2022-10-25T04:50:22.912Z,1001.04
2022-10-25T04:51:22.902Z,1001.11
2022-10-25T04:52:22.890Z,1001.08
2022-10-25T04:53:22.877Z,1001.08
2022-10-25T04:54:22.874Z,1001.04
2022-10-25T04:55:22.860Z,1001.06
2022-10-25T04:56:22.859Z,1001.02
2022-10-25T04:57:22.836Z,1001.07
2022-10-25T04:58:22.827Z,1001.06
2022-10-25T04:59:22.817Z,1001.06
2022-10-25T05:00:22.811Z,1001.05
2022-10-25T05:01:22.815Z,1001.04
2022-10-25T05:02:22.782Z,1001.07
2022-10-25T05:03:22.791Z,1001.02
2022-10-25T05:04:22.766Z,1001.04
2022-10-25T05:05:22.755Z,1001.09
2022-10-25T05:06:22.744Z,1001.06
2022-10-25T05:07:22.760Z,1001.07
2022-10-25T05:08:22.724Z,1001.08
2022-10-25T05:09:22.715Z,1001.12
2022-10-25T05:10:22.704Z,1001.17
2022-10-25T05:11:22.690Z,1001.12
2022-10-25T05:12:22.679Z,1001.12
2022-10-25T05:13:22.689Z,1001.22
2022-10-25T05:14:22.668Z,1001.15
2022-10-25T05:15:22.662Z,1001.13
2022-10-25T05:16:22.638Z,1001.26
2022-10-25T05:17:22.630Z,1001.27
2022-10-25T05:18:22.622Z,1001.2
2022-10-25T05:19:22.607Z,1001.27
2022-10-25T05:20:22.605Z,1001.3
2022-10-25T05:21:22.586Z,1001.28
2022-10-25T05:22:22.574Z,1001.26
2022-10-25T05:23:22.564Z,1001.32
2022-10-25T05:24:22.558Z,1001.36
2022-10-25T05:25:22.542Z,1001.31
2022-10-25T05:26:22.553Z,1001.33
2022-10-25T05:27:22.525Z,1001.37
2022-10-25T05:28:22.511Z,1001.32
2022-10-25T05:29:22.506Z,1001.38
2022-10-25T05:30:22.504Z,1001.38
2022-10-25T05:31:22.485Z,1001.31
2022-10-25T05:32:22.486Z,1001.35
2022-10-25T05:33:22.469Z,1001.41
2022-10-25T05:34:22.449Z,1001.41
2022-10-25T05:35:22.442Z,1001.42
2022-10-25T05:36:22.428Z,1001.38
2022-10-25T05:37:22.418Z,1001.43
2022-10-25T05:38:22.418Z,1001.46
2022-10-25T05:39:22.399Z,1001.48
2022-10-25T05:40:22.396Z,1001.53
2022-10-25T05:41:22.377Z,1001.48
2022-10-25T05:42:22.366Z,1001.55
2022-10-25T05:43:22.354Z,1001.52
2022-10-25T05:44:22.346Z,1001.55
2022-10-25T05:45:22.345Z,1001.58
2022-10-25T05:46:22.342Z,1001.62
2022-10-25T05:47:22.325Z,1001.62
2022-10-25T05:48:22.329Z,1001.59
2022-10-25T05:49:22.294Z,1001.64
2022-10-25T05:50:22.287Z,1001.64
2022-10-25T05:51:22.268Z,1001.69
2022-10-25T05:52:22.274Z,1001.72
2022-10-25T05:53:22.260Z,1001.66
2022-10-25T05:54:22.246Z,1001.67
2022-10-25T05:55:22.243Z,1001.67
2022-10-25T05:56:22.216Z,1001.69
2022-10-25T05:57:22.224Z,1001.64
2022-10-25T05:58:22.221Z,1001.66
2022-10-25T05:59:22.197Z,1001.61
2022-10-25T06:00:22.174Z,1001.6
2022-10-25T06:01:22.159Z,1001.61
2022-10-25T06:02:22.153Z,1001.61
2022-10-25T06:03:22.145Z,1001.67
2022-10-25T06:04:22.153Z,1001.64
2022-10-25T06:05:22.123Z,1001.67
2022-10-25T06:06:22.111Z,1001.67
2022-10-25T06:07:22.105Z,1001.7
2022-10-25T06:08:22.093Z,1001.67
2022-10-25T06:09:22.085Z,1001.74
2022-10-25T06:10:22.080Z,1001.8
2022-10-25T06:11:22.065Z,1001.81
2022-10-25T06:12:22.051Z,1001.82
2022-10-25T06:13:22.045Z,1001.82
2022-10-25T06:14:22.035Z,1001.8
2022-10-25T06:15:22.020Z,1001.78
2022-10-25T06:16:22.025Z,1001.83
2022-10-25T06:17:22.002Z,1001.81
2022-10-25T06:18:21.988Z,1001.89
2022-10-25T06:19:21.981Z,1001.82
2022-10-25T06:20:21.977Z,1001.87
2022-10-25T06:21:21.958Z,1001.88
2022-10-25T06:22:21.965Z,1001.88
2022-10-25T06:23:21.945Z,1001.86
2022-10-25T06:24:21.930Z,1001.88
2022-10-25T06:25:21.914Z,1001.89
2022-10-25T06:26:21.908Z,1001.89
2022-10-25T06:27:21.896Z,1001.86
2022-10-25T06:28:21.894Z,1001.88
2022-10-25T06:29:21.877Z,1001.89
2022-10-25T06:30:21.865Z,1001.93
2022-10-25T06:31:21.902Z,1001.95
2022-10-25T06:32:21.844Z,1001.91
2022-10-25T06:33:21.839Z,1001.91
2022-10-25T06:34:21.822Z,1001.92
2022-10-25T06:35:21.846Z,1001.93
2022-10-25T06:36:21.804Z,1001.97
2022-10-25T06:37:21.792Z,1001.98
2022-10-25T06:38:21.779Z,1001.96
2022-10-25T06:39:21.782Z,1002.04
2022-10-25T06:41:21.762Z,1002.08
2022-10-25T06:42:21.796Z,1002.08
2022-10-25T06:43:21.726Z,1002.02
2022-10-25T06:44:21.718Z,1002.07
2022-10-25T06:45:21.707Z,1002.1
2022-10-25T06:46:21.697Z,1002.11
2022-10-25T06:47:21.689Z,1002.11
2022-10-25T06:48:21.702Z,1002.05
2022-10-25T06:49:21.666Z,1002.13
2022-10-25T06:50:21.654Z,1002.2
2022-10-25T06:51:21.641Z,1002.15
2022-10-25T06:52:21.636Z,1002.13
2022-10-25T06:53:21.632Z,1002.15
2022-10-25T06:54:21.633Z,1002.2
2022-10-25T06:55:21.618Z,1002.22
2022-10-25T06:56:21.592Z,1002.19
2022-10-25T06:57:21.601Z,1002.29
2022-10-25T06:58:21.585Z,1002.26
2022-10-25T06:59:21.563Z,1002.26
2022-10-25T07:00:21.550Z,1002.42
2022-10-25T07:01:21.545Z,1002.4
2022-10-25T07:02:21.545Z,1002.44
2022-10-25T07:03:21.516Z,1002.44
2022-10-25T07:04:21.510Z,1002.45
2022-10-25T07:05:21.520Z,1002.5
2022-10-25T07:06:21.484Z,1002.53
2022-10-25T07:07:21.477Z,1002.51
2022-10-25T07:08:21.468Z,1002.54
2022-10-25T07:09:21.458Z,1002.56
2022-10-25T07:10:21.459Z,1002.6
2022-10-25T07:11:21.434Z,1002.58
2022-10-25T07:12:21.426Z,1002.55
2022-10-25T07:13:21.413Z,1002.61
2022-10-25T07:14:21.403Z,1002.62
2022-10-25T07:15:21.395Z,1002.65
2022-10-25T07:16:21.399Z,1002.67
2022-10-25T07:17:21.369Z,1002.65
2022-10-25T07:18:21.361Z,1002.68
2022-10-25T07:19:21.353Z,1002.67
2022-10-25T07:20:21.341Z,1002.69
2022-10-25T07:21:21.331Z,1002.68
2022-10-25T07:22:21.341Z,1002.71
2022-10-25T07:23:21.315Z,1002.75
2022-10-25T07:24:21.304Z,1002.8
2022-10-25T07:25:21.290Z,1002.84
2022-10-25T07:26:21.283Z,1002.86
2022-10-25T07:27:21.271Z,1002.87
2022-10-25T07:28:21.266Z,1002.91
2022-10-25T07:29:21.246Z,1002.85
2022-10-25T07:30:21.233Z,1002.91
2022-10-25T07:31:21.228Z,1002.95
2022-10-25T07:32:21.215Z,1002.86
2022-10-25T07:33:21.206Z,1002.92
2022-10-25T07:34:21.472Z,1002.91
2022-10-25T07:36:43.780Z,1002.9
2022-10-25T07:37:44.694Z,1002.85
2022-10-25T07:38:43.703Z,1002.88
2022-10-25T07:39:43.743Z,1002.86
2022-10-25T07:40:43.873Z,1002.9
2022-10-25T07:41:46.192Z,1002.84
2022-10-25T07:42:43.675Z,1002.88
2022-10-25T07:43:43.707Z,1002.88
2022-10-25T07:44:43.738Z,1002.9
2022-10-25T07:45:44.053Z,1002.9
2022-10-25T07:46:43.770Z,1002.87
2022-10-25T07:47:43.649Z,1002.91
2022-10-25T07:48:43.736Z,1002.92
2022-10-25T07:49:43.769Z,1002.92
2022-10-25T07:50:43.734Z,1002.95
2022-10-25T07:51:44.547Z,1002.88
2022-10-25T07:52:43.564Z,1002.91
2022-10-25T07:53:43.557Z,1002.99
2022-10-25T07:55:44.532Z,1003.05
2022-10-25T07:56:43.483Z,1003.06
2022-10-25T07:57:43.483Z,1003.11
2022-10-25T07:58:44.473Z,1003.06
2022-10-25T07:59:43.548Z,1003.08
2022-10-25T08:00:43.565Z,1003.1
2022-10-25T08:01:46.454Z,1003.11
2022-10-25T08:02:43.463Z,1003.11
2022-10-25T08:03:44.473Z,1003.15
2022-10-25T08:04:43.418Z,1003.16
2022-10-25T08:05:43.447Z,1003.1
2022-10-25T08:06:44.374Z,1003.14
2022-10-25T08:07:43.378Z,1003.12
2022-10-25T08:08:43.397Z,1003.13
2022-10-25T08:09:43.357Z,1003.13
2022-10-25T08:10:43.388Z,1003.16
2022-10-25T08:11:43.417Z,1003.13
2022-10-25T08:12:43.561Z,1003.12
2022-10-25T08:13:43.324Z,1003.1
2022-10-25T08:14:43.352Z,1003.15
2022-10-25T08:15:43.301Z,1003.18
2022-10-25T08:16:43.276Z,1003.27
2022-10-25T08:17:43.277Z,1003.2
2022-10-25T08:18:43.341Z,1003.25
2022-10-25T08:19:43.249Z,1003.16
2022-10-25T08:20:43.444Z,1003.2
2022-10-25T08:21:43.220Z,1003.2
2022-10-25T08:22:43.349Z,1003.2
2022-10-25T08:23:44.261Z,1003.25
2022-10-25T08:24:43.216Z,1003.25
2022-10-25T08:25:43.197Z,1003.34
2022-10-25T08:26:43.162Z,1003.31
2022-10-25T08:27:43.153Z,1003.33
2022-10-25T08:28:43.134Z,1003.37
2022-10-25T08:29:43.167Z,1003.37
2022-10-25T08:30:43.143Z,1003.36
2022-10-25T08:31:43.146Z,1003.35
2022-10-25T08:32:43.123Z,1003.3
2022-10-25T08:33:43.138Z,1003.37
2022-10-25T08:34:43.204Z,1003.36
2022-10-25T08:35:44.070Z,1003.33
2022-10-25T08:36:43.057Z,1003.29
2022-10-25T08:37:43.071Z,1003.33
2022-10-25T08:38:43.186Z,1003.3
2022-10-25T08:39:43.039Z,1003.34
2022-10-25T08:40:43.034Z,1003.34
2022-10-25T08:41:43.079Z,1003.37
2022-10-25T08:42:43.685Z,1003.38
2022-10-25T08:43:43.106Z,1003.38
2022-10-25T08:44:44.066Z,1003.37
2022-10-25T08:45:43.958Z,1003.38
2022-10-25T08:46:42.942Z,1003.38
2022-10-25T08:47:42.931Z,1003.41
2022-10-25T08:48:42.930Z,1003.43
2022-10-25T08:49:42.909Z,1003.44
2022-10-25T08:50:42.938Z,1003.49
2022-10-25T08:51:42.884Z,1003.43
2022-10-25T08:52:42.873Z,1003.43
2022-10-25T08:53:42.876Z,1003.37
2022-10-25T08:54:42.845Z,1003.41
2022-10-25T08:55:42.886Z,1003.4
2022-10-25T08:56:42.889Z,1003.44
2022-10-25T08:57:42.837Z,1003.46
2022-10-25T08:58:42.802Z,1003.45
2022-10-25T08:59:42.870Z,1003.46
2022-10-25T09:00:42.867Z,1003.5
2022-10-25T09:01:43.807Z,1003.56
2022-10-25T09:02:42.868Z,1003.53
2022-10-25T09:03:42.756Z,1003.54
2022-10-25T09:04:42.732Z,1003.51
2022-10-25T09:05:42.725Z,1003.47
2022-10-25T09:06:42.714Z,1003.43
2022-10-25T09:07:42.828Z,1003.51
2022-10-25T09:08:42.707Z,1003.52
2022-10-25T09:09:42.896Z,1003.48
2022-10-25T09:10:42.700Z,1003.55
2022-10-25T09:11:42.747Z,1003.59
2022-10-25T09:12:42.670Z,1003.65
2022-10-25T09:13:42.647Z,1003.64
2022-10-25T09:14:42.628Z,1003.62
2022-10-25T09:15:42.667Z,1003.59
2022-10-25T09:16:42.605Z,1003.63
2022-10-25T09:17:42.617Z,1003.57
2022-10-25T09:18:42.639Z,1003.54
2022-10-25T09:19:42.600Z,1003.58
2022-10-25T09:20:42.603Z,1003.58
2022-10-25T09:21:42.574Z,1003.6
2022-10-25T09:22:42.693Z,1003.63
2022-10-25T09:23:42.770Z,1003.68
2022-10-25T09:24:43.526Z,1003.62
2022-10-25T09:25:42.506Z,1003.68
2022-10-25T09:26:42.492Z,1003.68
2022-10-25T09:27:42.486Z,1003.72
2022-10-25T09:28:43.449Z,1003.63
2022-10-25T09:29:42.527Z,1003.68
2022-10-25T09:30:42.459Z,1003.7
2022-10-25T09:31:43.586Z,1003.69
2022-10-25T09:32:43.448Z,1003.69
2022-10-25T09:33:42.429Z,1003.66
2022-10-25T09:34:42.569Z,1003.63
2022-10-25T09:35:45.296Z,1003.71
2022-10-25T09:36:43.413Z,1003.7
2022-10-25T09:37:43.396Z,1003.7
2022-10-25T09:38:42.357Z,1003.72
2022-10-25T09:39:42.402Z,1003.74
2022-10-25T09:40:43.401Z,1003.73
2022-10-25T09:41:42.327Z,1003.74
2022-10-25T09:42:42.411Z,1003.77
2022-10-25T09:43:42.385Z,1003.7
2022-10-25T09:44:42.325Z,1003.72
2022-10-25T09:45:45.404Z,1003.75
2022-10-25T09:46:42.393Z,1003.81
2022-10-25T09:47:42.349Z,1003.78
2022-10-25T09:48:43.274Z,1003.75
2022-10-25T09:49:42.321Z,1003.83
2022-10-25T09:50:42.271Z,1003.73
2022-10-25T09:51:43.321Z,1003.71
2022-10-25T09:52:42.215Z,1003.82
2022-10-25T09:53:42.377Z,1003.84
2022-10-25T09:54:42.209Z,1003.85
2022-10-25T09:55:42.218Z,1003.85
2022-10-25T09:56:43.248Z,1003.89
2022-10-25T09:57:43.237Z,1003.9
2022-10-25T09:58:42.133Z,1003.97
2022-10-25T09:59:42.162Z,1003.94
2022-10-25T10:00:42.120Z,1003.93
2022-10-25T10:01:42.139Z,1003.97
2022-10-25T10:02:42.154Z,1003.98
2022-10-25T10:03:42.087Z,1003.9
2022-10-25T10:04:42.349Z,1003.89
2022-10-25T10:05:42.126Z,1003.9
2022-10-25T10:06:43.097Z,1003.96
2022-10-25T10:07:42.252Z,1003.91
2022-10-25T10:08:42.305Z,1003.95
2022-10-25T10:09:42.319Z,1004
2022-10-25T10:23:58.432Z,1004.06
2022-10-25T10:26:34.246Z,1004.1
2022-10-25T10:27:35.425Z,1004.11
2022-10-25T10:28:33.442Z,1004.18
2022-10-25T10:29:33.446Z,1004.2
2022-10-25T10:30:33.429Z,1004.18
2022-10-25T10:31:34.334Z,1004.17
2022-10-25T10:32:33.341Z,1004.11
2022-10-25T10:33:34.428Z,1004.07
2022-10-25T10:34:33.284Z,1004.15
2022-10-25T10:35:33.334Z,1004.25
2022-10-25T10:36:34.251Z,1004.2
2022-10-25T10:37:33.406Z,1004.26
2022-10-25T10:38:33.389Z,1004.21
2022-10-25T10:39:34.229Z,1004.2
2022-10-25T10:40:33.405Z,1004.24
2022-10-25T10:41:33.377Z,1004.21
2022-10-25T10:42:33.210Z,1004.18
2022-10-25T10:43:33.165Z,1004.23
2022-10-25T10:44:33.157Z,1004.17
2022-10-25T10:45:33.154Z,1004.17
2022-10-25T10:46:33.176Z,1004.16
2022-10-25T10:47:33.179Z,1004.15
2022-10-25T10:48:33.162Z,1004.17
2022-10-25T10:49:33.115Z,1004.22
2022-10-25T10:50:33.081Z,1004.15
2022-10-25T10:51:33.071Z,1004.19
2022-10-25T10:52:33.087Z,1004.24
2022-10-25T10:53:33.145Z,1004.16
2022-10-25T10:54:34.052Z,1004.18
2022-10-25T10:55:33.026Z,1004.16
2022-10-25T10:56:33.020Z,1004.18
2022-10-25T10:57:33.025Z,1004.2
2022-10-25T10:58:33.044Z,1004.19
2022-10-25T10:59:32.985Z,1004.17
2022-10-25T11:00:32.991Z,1004.12
2022-10-25T11:01:32.965Z,1004.18
2022-10-25T11:02:32.957Z,1004.21
2022-10-25T11:03:32.994Z,1004.06
2022-10-25T11:04:32.927Z,1004.17
2022-10-25T11:05:33.022Z,1004.21
2022-10-25T11:06:32.912Z,1004.25
2022-10-25T11:07:32.907Z,1004.29
2022-10-25T11:08:32.886Z,1004.28
2022-10-25T11:09:32.888Z,1004.32
2022-10-25T11:10:32.876Z,1004.34
2022-10-25T11:11:32.856Z,1004.31
2022-10-25T11:12:32.845Z,1004.36
2022-10-25T11:13:32.841Z,1004.26
2022-10-25T11:14:33.819Z,1004.41
2022-10-25T11:15:32.825Z,1004.27
2022-10-25T11:16:32.805Z,1004.39
2022-10-25T11:17:32.801Z,1004.39
2022-10-25T11:18:32.836Z,1004.32
2022-10-25T11:19:32.774Z,1004.33
2022-10-25T11:20:32.754Z,1004.38
2022-10-25T11:21:32.757Z,1004.39
2022-10-25T11:22:32.739Z,1004.49
2022-10-25T11:23:32.762Z,1004.49
2022-10-25T11:24:32.717Z,1004.4
2022-10-25T11:25:32.792Z,1004.36
2022-10-25T11:26:32.708Z,1004.37
2022-10-25T11:27:32.709Z,1004.44
2022-10-25T11:28:32.703Z,1004.51
2022-10-25T11:29:32.663Z,1004.37
2022-10-25T11:30:32.681Z,1004.48
2022-10-25T11:31:32.638Z,1004.37
2022-10-25T11:32:32.652Z,1004.38
2022-10-25T11:33:32.645Z,1004.45
2022-10-25T11:34:32.613Z,1004.49
2022-10-25T11:35:32.699Z,1004.52
2022-10-25T11:36:32.583Z,1004.51
2022-10-25T11:37:32.581Z,1004.53
2022-10-25T11:38:32.570Z,1004.51
2022-10-25T11:39:32.553Z,1004.53
2022-10-25T11:40:32.549Z,1004.6
2022-10-25T11:41:32.530Z,1004.75
2022-10-25T11:42:32.524Z,1004.85
2022-10-25T11:43:32.569Z,1004.67
2022-10-25T11:44:32.538Z,1004.38
2022-10-25T11:45:32.516Z,1004.4
2022-10-25T11:46:32.483Z,1004.38
2022-10-25T11:47:32.468Z,1004.43
2022-10-25T11:48:32.466Z,1004.76
2022-10-25T11:49:32.472Z,1004.43
2022-10-25T11:50:32.583Z,1004.31
2022-10-25T11:51:32.433Z,1004.51
2022-10-25T11:52:32.417Z,1004.35
2022-10-25T11:53:32.398Z,1004.47
2022-10-25T11:54:32.394Z,1004.58
2022-10-25T11:55:32.377Z,1004.45
2022-10-25T11:56:32.437Z,1004.39
2022-10-25T11:57:33.378Z,1004.87
2022-10-25T11:58:32.372Z,1004.38
2022-10-25T11:59:32.354Z,1004.42
2022-10-25T12:00:32.360Z,1004.36
2022-10-25T12:01:32.322Z,1004.48
2022-10-25T12:02:32.338Z,1004.39
2022-10-25T12:03:32.347Z,1004.37
2022-10-25T12:04:32.304Z,1004.42
2022-10-25T12:05:32.269Z,1004.41
2022-10-25T12:06:32.262Z,1004.48
2022-10-25T12:07:32.293Z,1004.48
2022-10-25T12:08:32.247Z,1004.44
2022-10-25T12:09:32.272Z,1004.39
2022-10-25T12:10:32.212Z,1004.45
2022-10-25T12:11:32.207Z,1004.51
2022-10-25T12:12:32.198Z,1004.48
2022-10-25T12:13:32.224Z,1004.53
2022-10-25T12:14:32.186Z,1004.56
2022-10-25T12:15:32.167Z,1004.76
2022-10-25T12:16:32.157Z,1004.83
2022-10-25T12:17:32.174Z,1004.78
2022-10-25T12:18:32.133Z,1004.47
2022-10-25T12:19:32.120Z,1004.44
2022-10-25T12:20:32.106Z,1004.46
2022-10-25T12:21:32.286Z,1004.41
2022-10-25T12:22:32.151Z,1004.52
2022-10-25T12:23:32.072Z,1004.52
2022-10-25T12:24:32.065Z,1004.59
2022-10-25T12:25:32.073Z,1004.55
2022-10-25T12:26:32.048Z,1004.59
2022-10-25T12:27:32.043Z,1004.59